This is the latest recevied weather packets stored in our database for station/object YO2MAS-13. If no packets are shown the sender has not sent any weather packets the latest 10 day(s).
| Time | Temp. | Humidity | Pressure | Rain* | Wind** | Luminosity | Snow |
|---|---|---|---|---|---|---|---|
| 1777297505 | 23.33° C | 32% | 1022.7 hPa | - | - | - | - |
| 1777296607 | 22.22° C | 32% | 1022.9 hPa | - | - | - | - |
| 1777295703 | 21.67° C | 32% | 1023.1 hPa | - | - | - | - |
| 1777294803 | 21.67° C | 32% | 1023.5 hPa | - | - | - | - |
| 1777293903 | 22.22° C | 32% | 1023.7 hPa | - | - | - | - |
| 1777293003 | 20.56° C | 34% | 1024.1 hPa | - | - | - | - |
| 1777292103 | 21.67° C | 34% | 1024 hPa | - | - | - | - |
| 1777291203 | 21.11° C | 34% | 1024.2 hPa | - | - | - | - |
| 1777290303 | 21.11° C | 33% | 1024.4 hPa | - | - | - | - |
| 1777289403 | 19.44° C | 34% | 1024.8 hPa | - | - | - | - |
| 1777288503 | 21.67° C | 32% | 1024.7 hPa | - | - | - | - |
| 1777287603 | 20° C | 33% | 1025.1 hPa | - | - | - | - |
| 1777286703 | 18.33° C | 36% | 1025.5 hPa | - | - | - | - |
| 1777285803 | 19.44° C | 35% | 1025.6 hPa | - | - | - | - |
| 1777284903 | 19.44° C | 34% | 1025.9 hPa | - | - | - | - |
| 1777284003 | 20.56° C | 33% | 1026 hPa | - | - | - | - |
| 1777283103 | 20.56° C | 36% | 1026.2 hPa | - | - | - | - |
| 1777282205 | 19.44° C | 35% | 1026.5 hPa | - | - | - | - |
| 1777281303 | 17.22° C | 35% | 1026.8 hPa | - | - | - | - |
| 1777280403 | 17.78° C | 39% | 1026.9 hPa | - | - | - | - |
| 1777279503 | 16.67° C | 42% | 1027.1 hPa | - | - | - | - |
| 1777278603 | 16.11° C | 44% | 1027.2 hPa | - | - | - | - |
| 1777277703 | 16.67° C | 44% | 1027.2 hPa | - | - | - | - |
| 1777276803 | 15.56° C | 45% | 1027.3 hPa | - | - | - | - |
| 1777275903 | 15.56° C | 46% | 1027.2 hPa | - | - | - | - |
* Rain since midnight (hover to see other rain measurements)
** Current wind speed in m/s (hover to see current wind gust speed)